sensor_id;sensor_type;location;lat;lon;timestamp;temperature;humidity
64924;HTU21D;51436;44.692;39.214;2024-02-16T00:00:59;6.10;60.65
64924;HTU21D;51436;44.692;39.214;2024-02-16T00:03:26;6.13;60.63
64924;HTU21D;51436;44.692;39.214;2024-02-16T00:05:53;6.12;60.63
64924;HTU21D;51436;44.692;39.214;2024-02-16T00:08:20;6.11;60.67
64924;HTU21D;51436;44.692;39.214;2024-02-16T00:10:48;6.08;60.70
64924;HTU21D;51436;44.692;39.214;2024-02-16T00:13:17;6.06;60.72
64924;HTU21D;51436;44.692;39.214;2024-02-16T00:15:44;6.06;60.75
64924;HTU21D;51436;44.692;39.214;2024-02-16T00:20:36;6.08;60.69
64924;HTU21D;51436;44.692;39.214;2024-02-16T00:23:03;6.09;60.71
64924;HTU21D;51436;44.692;39.214;2024-02-16T00:25:33;6.09;60.73
64924;HTU21D;51436;44.692;39.214;2024-02-16T00:27:59;6.12;60.72
64924;HTU21D;51436;44.692;39.214;2024-02-16T00:30:26;6.15;60.66
64924;HTU21D;51436;44.692;39.214;2024-02-16T00:32:53;6.15;60.67
64924;HTU21D;51436;44.692;39.214;2024-02-16T00:35:22;6.16;60.61
64924;HTU21D;51436;44.692;39.214;2024-02-16T00:37:49;6.11;60.69
64924;HTU21D;51436;44.692;39.214;2024-02-16T00:40:15;6.09;60.72
64924;HTU21D;51436;44.692;39.214;2024-02-16T00:42:42;6.12;60.70
64924;HTU21D;51436;44.692;39.214;2024-02-16T00:45:08;6.13;60.64
64924;HTU21D;51436;44.692;39.214;2024-02-16T00:47:35;6.05;60.71
64924;HTU21D;51436;44.692;39.214;2024-02-16T00:50:03;6.00;60.74
64924;HTU21D;51436;44.692;39.214;2024-02-16T00:52:40;5.98;60.77
64924;HTU21D;51436;44.692;39.214;2024-02-16T00:55:06;6.02;60.72
64924;HTU21D;51436;44.692;39.214;2024-02-16T00:57:33;6.05;60.72
64924;HTU21D;51436;44.692;39.214;2024-02-16T01:00:00;6.14;60.60
64924;HTU21D;51436;44.692;39.214;2024-02-16T01:02:27;6.13;60.54
64924;HTU21D;51436;44.692;39.214;2024-02-16T01:04:53;6.13;60.60
64924;HTU21D;51436;44.692;39.214;2024-02-16T01:07:24;6.11;60.60
64924;HTU21D;51436;44.692;39.214;2024-02-16T01:09:50;6.06;60.67
64924;HTU21D;51436;44.692;39.214;2024-02-16T01:12:17;6.04;60.70
64924;HTU21D;51436;44.692;39.214;2024-02-16T01:14:43;6.06;60.71
64924;HTU21D;51436;44.692;39.214;2024-02-16T01:17:10;6.08;60.62
64924;HTU21D;51436;44.692;39.214;2024-02-16T01:19:36;6.04;60.64
64924;HTU21D;51436;44.692;39.214;2024-02-16T01:22:04;6.01;60.67
64924;HTU21D;51436;44.692;39.214;2024-02-16T01:24:30;6.02;60.63
64924;HTU21D;51436;44.692;39.214;2024-02-16T01:26:56;6.02;60.60
64924;HTU21D;51436;44.692;39.214;2024-02-16T01:29:24;6.04;60.60
64924;HTU21D;51436;44.692;39.214;2024-02-16T01:31:50;6.04;60.59
64924;HTU21D;51436;44.692;39.214;2024-02-16T01:34:16;6.08;60.56
64924;HTU21D;51436;44.692;39.214;2024-02-16T01:36:43;6.10;60.56
64924;HTU21D;51436;44.692;39.214;2024-02-16T01:39:09;6.11;60.56
64924;HTU21D;51436;44.692;39.214;2024-02-16T01:41:39;6.13;60.52
64924;HTU21D;51436;44.692;39.214;2024-02-16T01:44:05;6.12;60.54
64924;HTU21D;51436;44.692;39.214;2024-02-16T01:46:34;6.14;60.56
64924;HTU21D;51436;44.692;39.214;2024-02-16T01:49:02;6.13;60.54
64924;HTU21D;51436;44.692;39.214;2024-02-16T01:51:28;6.11;60.54
64924;HTU21D;51436;44.692;39.214;2024-02-16T01:53:55;6.10;60.56
64924;HTU21D;51436;44.692;39.214;2024-02-16T01:56:22;6.12;60.55
64924;HTU21D;51436;44.692;39.214;2024-02-16T01:58:48;6.14;60.55
64924;HTU21D;51436;44.692;39.214;2024-02-16T02:01:18;6.19;60.50
64924;HTU21D;51436;44.692;39.214;2024-02-16T02:03:44;6.21;60.47
64924;HTU21D;51436;44.692;39.214;2024-02-16T02:06:11;6.19;60.52
64924;HTU21D;51436;44.692;39.214;2024-02-16T02:08:37;6.17;60.52
64924;HTU21D;51436;44.692;39.214;2024-02-16T02:11:04;6.16;60.57
64924;HTU21D;51436;44.692;39.214;2024-02-16T02:13:31;6.15;60.60
64924;HTU21D;51436;44.692;39.214;2024-02-16T02:16:16;6.15;60.54
64924;HTU21D;51436;44.692;39.214;2024-02-16T02:18:49;6.19;60.55
64924;HTU21D;51436;44.692;39.214;2024-02-16T02:21:15;6.16;60.50
64924;HTU21D;51436;44.692;39.214;2024-02-16T02:23:43;6.15;60.53
64924;HTU21D;51436;44.692;39.214;2024-02-16T02:26:10;6.11;60.53
64924;HTU21D;51436;44.692;39.214;2024-02-16T02:28:36;6.07;60.57
64924;HTU21D;51436;44.692;39.214;2024-02-16T02:31:05;6.02;60.57
64924;HTU21D;51436;44.692;39.214;2024-02-16T02:33:39;6.04;60.52
64924;HTU21D;51436;44.692;39.214;2024-02-16T02:36:06;6.05;60.54
64924;HTU21D;51436;44.692;39.214;2024-02-16T02:38:32;6.08;60.47
64924;HTU21D;51436;44.692;39.214;2024-02-16T02:40:59;6.04;60.49
64924;HTU21D;51436;44.692;39.214;2024-02-16T02:43:25;6.06;60.50
64924;HTU21D;51436;44.692;39.214;2024-02-16T02:45:51;6.07;60.47
64924;HTU21D;51436;44.692;39.214;2024-02-16T02:48:18;6.04;60.48
64924;HTU21D;51436;44.692;39.214;2024-02-16T02:50:44;6.05;60.54
64924;HTU21D;51436;44.692;39.214;2024-02-16T02:53:11;6.01;60.54
64924;HTU21D;51436;44.692;39.214;2024-02-16T02:55:37;5.97;60.57
64924;HTU21D;51436;44.692;39.214;2024-02-16T02:58:03;5.95;60.59
64924;HTU21D;51436;44.692;39.214;2024-02-16T03:00:30;5.95;60.55
64924;HTU21D;51436;44.692;39.214;2024-02-16T03:02:56;5.97;60.54
64924;HTU21D;51436;44.692;39.214;2024-02-16T03:05:23;5.97;60.51
64924;HTU21D;51436;44.692;39.214;2024-02-16T03:07:49;5.96;60.55
64924;HTU21D;51436;44.692;39.214;2024-02-16T03:10:16;5.95;60.55
64924;HTU21D;51436;44.692;39.214;2024-02-16T03:12:47;5.96;60.54
64924;HTU21D;51436;44.692;39.214;2024-02-16T03:15:16;5.95;60.48
64924;HTU21D;51436;44.692;39.214;2024-02-16T03:17:44;5.95;60.53
64924;HTU21D;51436;44.692;39.214;2024-02-16T03:20:13;5.94;60.48
64924;HTU21D;51436;44.692;39.214;2024-02-16T03:22:42;5.90;60.55
64924;HTU21D;51436;44.692;39.214;2024-02-16T03:25:08;5.92;60.53
64924;HTU21D;51436;44.692;39.214;2024-02-16T03:27:35;5.89;60.56
64924;HTU21D;51436;44.692;39.214;2024-02-16T03:30:01;5.90;60.57
64924;HTU21D;51436;44.692;39.214;2024-02-16T03:32:28;5.87;60.54
64924;HTU21D;51436;44.692;39.214;2024-02-16T03:34:57;5.81;60.60
64924;HTU21D;51436;44.692;39.214;2024-02-16T03:37:30;5.76;60.67
64924;HTU21D;51436;44.692;39.214;2024-02-16T03:39:59;5.71;60.68
64924;HTU21D;51436;44.692;39.214;2024-02-16T03:42:25;5.69;60.71
64924;HTU21D;51436;44.692;39.214;2024-02-16T03:44:52;5.69;60.67
64924;HTU21D;51436;44.692;39.214;2024-02-16T03:47:18;5.67;60.69
64924;HTU21D;51436;44.692;39.214;2024-02-16T03:49:47;5.62;60.73
64924;HTU21D;51436;44.692;39.214;2024-02-16T03:52:14;5.61;60.75
64924;HTU21D;51436;44.692;39.214;2024-02-16T03:54:40;5.55;60.73
64924;HTU21D;51436;44.692;39.214;2024-02-16T03:57:08;5.51;60.79
64924;HTU21D;51436;44.692;39.214;2024-02-16T03:59:37;5.50;60.77
64924;HTU21D;51436;44.692;39.214;2024-02-16T04:02:03;5.52;60.75
64924;HTU21D;51436;44.692;39.214;2024-02-16T04:04:30;5.51;60.73
64924;HTU21D;51436;44.692;39.214;2024-02-16T04:06:56;5.47;60.73
64924;HTU21D;51436;44.692;39.214;2024-02-16T04:09:23;5.37;60.82
64924;HTU21D;51436;44.692;39.214;2024-02-16T04:11:49;5.33;60.83
64924;HTU21D;51436;44.692;39.214;2024-02-16T04:14:16;5.31;60.83
64924;HTU21D;51436;44.692;39.214;2024-02-16T04:16:44;5.28;60.83
64924;HTU21D;51436;44.692;39.214;2024-02-16T04:19:17;5.25;60.83
64924;HTU21D;51436;44.692;39.214;2024-02-16T04:21:44;5.19;60.85
64924;HTU21D;51436;44.692;39.214;2024-02-16T04:24:10;5.17;60.90
64924;HTU21D;51436;44.692;39.214;2024-02-16T04:26:36;5.21;60.86
64924;HTU21D;51436;44.692;39.214;2024-02-16T04:29:03;5.25;60.76
64924;HTU21D;51436;44.692;39.214;2024-02-16T04:31:30;5.26;60.75
64924;HTU21D;51436;44.692;39.214;2024-02-16T04:33:57;5.25;60.80
64924;HTU21D;51436;44.692;39.214;2024-02-16T04:36:26;5.24;60.79
64924;HTU21D;51436;44.692;39.214;2024-02-16T04:38:52;5.20;60.81
64924;HTU21D;51436;44.692;39.214;2024-02-16T04:41:22;5.16;60.92
64924;HTU21D;51436;44.692;39.214;2024-02-16T04:43:48;5.13;60.95
64924;HTU21D;51436;44.692;39.214;2024-02-16T04:46:15;5.17;60.94
64924;HTU21D;51436;44.692;39.214;2024-02-16T04:48:42;5.13;60.95
64924;HTU21D;51436;44.692;39.214;2024-02-16T04:51:09;5.13;61.00
64924;HTU21D;51436;44.692;39.214;2024-02-16T04:53:36;5.19;60.91
64924;HTU21D;51436;44.692;39.214;2024-02-16T04:56:02;5.19;60.83
64924;HTU21D;51436;44.692;39.214;2024-02-16T04:58:29;5.19;60.87
64924;HTU21D;51436;44.692;39.214;2024-02-16T05:00:55;5.19;60.91
64924;HTU21D;51436;44.692;39.214;2024-02-16T05:03:24;5.20;60.83
64924;HTU21D;51436;44.692;39.214;2024-02-16T05:05:53;5.16;60.94
64924;HTU21D;51436;44.692;39.214;2024-02-16T05:08:22;5.15;60.95
64924;HTU21D;51436;44.692;39.214;2024-02-16T05:10:50;5.10;61.00
64924;HTU21D;51436;44.692;39.214;2024-02-16T05:13:19;5.11;60.95
64924;HTU21D;51436;44.692;39.214;2024-02-16T05:15:45;5.07;61.02
64924;HTU21D;51436;44.692;39.214;2024-02-16T05:18:14;5.06;61.05
64924;HTU21D;51436;44.692;39.214;2024-02-16T05:20:44;5.08;61.05
64924;HTU21D;51436;44.692;39.214;2024-02-16T05:23:10;5.09;60.98
64924;HTU21D;51436;44.692;39.214;2024-02-16T05:25:37;5.08;60.98
64924;HTU21D;51436;44.692;39.214;2024-02-16T05:28:03;5.15;60.92
64924;HTU21D;51436;44.692;39.214;2024-02-16T05:30:30;5.16;60.84
64924;HTU21D;51436;44.692;39.214;2024-02-16T05:32:57;5.13;60.88
64924;HTU21D;51436;44.692;39.214;2024-02-16T05:35:25;5.10;60.95
64924;HTU21D;51436;44.692;39.214;2024-02-16T05:37:55;5.06;60.98
64924;HTU21D;51436;44.692;39.214;2024-02-16T05:40:21;5.05;60.96
64924;HTU21D;51436;44.692;39.214;2024-02-16T05:42:54;5.04;60.95
64924;HTU21D;51436;44.692;39.214;2024-02-16T05:45:24;5.04;60.96
64924;HTU21D;51436;44.692;39.214;2024-02-16T05:47:52;5.07;60.94
64924;HTU21D;51436;44.692;39.214;2024-02-16T05:50:20;5.08;60.91
64924;HTU21D;51436;44.692;39.214;2024-02-16T05:52:48;5.13;60.88
64924;HTU21D;51436;44.692;39.214;2024-02-16T05:55:16;5.10;60.84
64924;HTU21D;51436;44.692;39.214;2024-02-16T05:57:44;5.10;60.86
64924;HTU21D;51436;44.692;39.214;2024-02-16T06:00:12;5.15;60.82
64924;HTU21D;51436;44.692;39.214;2024-02-16T06:02:39;5.15;60.82
64924;HTU21D;51436;44.692;39.214;2024-02-16T06:05:06;5.12;60.83
64924;HTU21D;51436;44.692;39.214;2024-02-16T06:07:32;5.11;60.85
64924;HTU21D;51436;44.692;39.214;2024-02-16T06:09:59;5.10;60.86
64924;HTU21D;51436;44.692;39.214;2024-02-16T06:12:25;5.06;60.93
64924;HTU21D;51436;44.692;39.214;2024-02-16T06:14:52;5.06;60.94
64924;HTU21D;51436;44.692;39.214;2024-02-16T06:17:19;5.06;60.89
64924;HTU21D;51436;44.692;39.214;2024-02-16T06:19:45;5.07;60.82
64924;HTU21D;51436;44.692;39.214;2024-02-16T06:22:12;5.04;60.86
64924;HTU21D;51436;44.692;39.214;2024-02-16T06:24:38;5.02;60.87
64924;HTU21D;51436;44.692;39.214;2024-02-16T06:27:05;5.01;60.85
64924;HTU21D;51436;44.692;39.214;2024-02-16T06:29:31;5.08;60.77
64924;HTU21D;51436;44.692;39.214;2024-02-16T06:31:57;5.11;60.64
64924;HTU21D;51436;44.692;39.214;2024-02-16T06:34:24;5.13;60.61
64924;HTU21D;51436;44.692;39.214;2024-02-16T06:36:50;5.20;60.50
64924;HTU21D;51436;44.692;39.214;2024-02-16T06:39:17;5.17;60.49
64924;HTU21D;51436;44.692;39.214;2024-02-16T06:41:45;5.11;60.60
64924;HTU21D;51436;44.692;39.214;2024-02-16T06:44:13;5.12;60.67
64924;HTU21D;51436;44.692;39.214;2024-02-16T06:46:39;5.13;60.66
64924;HTU21D;51436;44.692;39.214;2024-02-16T06:49:08;5.19;60.54
64924;HTU21D;51436;44.692;39.214;2024-02-16T06:51:36;5.23;60.47
64924;HTU21D;51436;44.692;39.214;2024-02-16T06:54:03;5.26;60.43
64924;HTU21D;51436;44.692;39.214;2024-02-16T06:56:31;5.33;60.35
64924;HTU21D;51436;44.692;39.214;2024-02-16T06:58:57;5.37;60.30
64924;HTU21D;51436;44.692;39.214;2024-02-16T07:01:24;5.34;60.32
64924;HTU21D;51436;44.692;39.214;2024-02-16T07:03:51;5.31;60.35
64924;HTU21D;51436;44.692;39.214;2024-02-16T07:06:18;5.27;60.34
64924;HTU21D;51436;44.692;39.214;2024-02-16T07:08:47;5.25;60.35
64924;HTU21D;51436;44.692;39.214;2024-02-16T07:11:16;5.26;60.35
64924;HTU21D;51436;44.692;39.214;2024-02-16T07:13:48;5.35;60.25
64924;HTU21D;51436;44.692;39.214;2024-02-16T07:16:15;5.43;60.12
64924;HTU21D;51436;44.692;39.214;2024-02-16T07:18:41;5.45;60.08
64924;HTU21D;51436;44.692;39.214;2024-02-16T07:21:10;5.41;60.13
64924;HTU21D;51436;44.692;39.214;2024-02-16T07:23:37;5.46;60.12
64924;HTU21D;51436;44.692;39.214;2024-02-16T07:26:04;5.48;60.06
64924;HTU21D;51436;44.692;39.214;2024-02-16T07:28:31;5.49;60.04
64924;HTU21D;51436;44.692;39.214;2024-02-16T07:30:57;5.51;60.06
64924;HTU21D;51436;44.692;39.214;2024-02-16T07:33:24;5.54;60.01
64924;HTU21D;51436;44.692;39.214;2024-02-16T07:35:51;5.63;59.89
64924;HTU21D;51436;44.692;39.214;2024-02-16T07:38:18;5.66;59.84
64924;HTU21D;51436;44.692;39.214;2024-02-16T07:40:44;5.72;59.78
64924;HTU21D;51436;44.692;39.214;2024-02-16T07:43:11;5.69;59.86
64924;HTU21D;51436;44.692;39.214;2024-02-16T07:45:38;5.71;59.90
64924;HTU21D;51436;44.692;39.214;2024-02-16T07:48:05;5.70;59.86
64924;HTU21D;51436;44.692;39.214;2024-02-16T07:50:33;5.71;59.86
64924;HTU21D;51436;44.692;39.214;2024-02-16T07:52:59;5.70;59.89
64924;HTU21D;51436;44.692;39.214;2024-02-16T07:55:26;5.70;59.86
64924;HTU21D;51436;44.692;39.214;2024-02-16T07:57:52;5.70;59.90
64924;HTU21D;51436;44.692;39.214;2024-02-16T08:00:19;5.76;59.80
64924;HTU21D;51436;44.692;39.214;2024-02-16T08:02:48;5.77;59.76
64924;HTU21D;51436;44.692;39.214;2024-02-16T08:05:15;5.81;59.73
64924;HTU21D;51436;44.692;39.214;2024-02-16T08:07:45;5.82;59.72
64924;HTU21D;51436;44.692;39.214;2024-02-16T08:10:12;5.85;59.71
64924;HTU21D;51436;44.692;39.214;2024-02-16T08:12:39;5.83;59.70
64924;HTU21D;51436;44.692;39.214;2024-02-16T08:15:07;5.87;59.69
64924;HTU21D;51436;44.692;39.214;2024-02-16T08:17:34;5.95;59.53
64924;HTU21D;51436;44.692;39.214;2024-02-16T08:20:01;5.98;59.49
64924;HTU21D;51436;44.692;39.214;2024-02-16T08:22:28;6.06;59.35
64924;HTU21D;51436;44.692;39.214;2024-02-16T08:24:54;6.06;59.33
64924;HTU21D;51436;44.692;39.214;2024-02-16T08:27:21;6.13;59.27
64924;HTU21D;51436;44.692;39.214;2024-02-16T08:30:19;6.23;59.12
64924;HTU21D;51436;44.692;39.214;2024-02-16T08:32:48;6.28;58.99
64924;HTU21D;51436;44.692;39.214;2024-02-16T08:35:15;6.29;58.97
64924;HTU21D;51436;44.692;39.214;2024-02-16T08:37:42;6.29;58.99
64924;HTU21D;51436;44.692;39.214;2024-02-16T08:40:09;6.33;59.02
64924;HTU21D;51436;44.692;39.214;2024-02-16T08:42:42;6.37;58.96
64924;HTU21D;51436;44.692;39.214;2024-02-16T08:45:09;6.42;58.90
64924;HTU21D;51436;44.692;39.214;2024-02-16T08:47:36;6.51;58.81
64924;HTU21D;51436;44.692;39.214;2024-02-16T08:50:02;6.52;58.82
64924;HTU21D;51436;44.692;39.214;2024-02-16T08:52:28;6.54;58.83
64924;HTU21D;51436;44.692;39.214;2024-02-16T08:54:55;6.61;58.79
64924;HTU21D;51436;44.692;39.214;2024-02-16T08:57:21;6.63;58.73
64924;HTU21D;51436;44.692;39.214;2024-02-16T08:59:50;6.66;58.77
64924;HTU21D;51436;44.692;39.214;2024-02-16T09:02:19;6.73;58.60
64924;HTU21D;51436;44.692;39.214;2024-02-16T09:04:46;6.85;58.56
64924;HTU21D;51436;44.692;39.214;2024-02-16T09:07:12;6.91;58.38
64924;HTU21D;51436;44.692;39.214;2024-02-16T09:09:38;6.94;58.43
64924;HTU21D;51436;44.692;39.214;2024-02-16T09:12:05;6.99;58.40
64924;HTU21D;51436;44.692;39.214;2024-02-16T09:14:32;7.01;58.32
64924;HTU21D;51436;44.692;39.214;2024-02-16T09:16:58;7.04;58.34
64924;HTU21D;51436;44.692;39.214;2024-02-16T09:19:24;7.11;58.25
64924;HTU21D;51436;44.692;39.214;2024-02-16T09:21:51;7.13;58.27
64924;HTU21D;51436;44.692;39.214;2024-02-16T09:24:43;7.23;58.17
64924;HTU21D;51436;44.692;39.214;2024-02-16T09:27:12;7.30;58.09
64924;HTU21D;51436;44.692;39.214;2024-02-16T09:29:39;7.39;57.98
64924;HTU21D;51436;44.692;39.214;2024-02-16T09:32:06;7.41;57.98
64924;HTU21D;51436;44.692;39.214;2024-02-16T09:34:32;7.45;57.90
64924;HTU21D;51436;44.692;39.214;2024-02-16T09:36:59;7.50;57.85
64924;HTU21D;51436;44.692;39.214;2024-02-16T09:39:28;7.58;57.75
64924;HTU21D;51436;44.692;39.214;2024-02-16T09:41:54;7.62;57.71
64924;HTU21D;51436;44.692;39.214;2024-02-16T09:44:24;7.69;57.63
64924;HTU21D;51436;44.692;39.214;2024-02-16T09:46:54;7.71;57.71
64924;HTU21D;51436;44.692;39.214;2024-02-16T09:49:21;7.69;57.74
64924;HTU21D;51436;44.692;39.214;2024-02-16T09:51:47;7.59;57.96
64924;HTU21D;51436;44.692;39.214;2024-02-16T09:54:14;7.59;58.03
64924;HTU21D;51436;44.692;39.214;2024-02-16T09:56:41;7.72;57.87
64924;HTU21D;51436;44.692;39.214;2024-02-16T09:59:08;7.78;57.70
64924;HTU21D;51436;44.692;39.214;2024-02-16T10:01:35;7.77;57.74
64924;HTU21D;51436;44.692;39.214;2024-02-16T10:04:08;7.73;57.80
64924;HTU21D;51436;44.692;39.214;2024-02-16T10:06:47;7.75;57.82
64924;HTU21D;51436;44.692;39.214;2024-02-16T10:09:27;7.78;57.78
64924;HTU21D;51436;44.692;39.214;2024-02-16T10:11:55;7.86;57.66
64924;HTU21D;51436;44.692;39.214;2024-02-16T10:14:21;7.94;57.55
64924;HTU21D;51436;44.692;39.214;2024-02-16T10:17:04;7.92;57.57
64924;HTU21D;51436;44.692;39.214;2024-02-16T10:19:58;7.94;57.62
64924;HTU21D;51436;44.692;39.214;2024-02-16T10:22:25;7.93;57.65
64924;HTU21D;51436;44.692;39.214;2024-02-16T10:24:51;7.91;57.72
64924;HTU21D;51436;44.692;39.214;2024-02-16T10:27:18;7.90;57.74
64924;HTU21D;51436;44.692;39.214;2024-02-16T10:29:47;7.94;57.76
64924;HTU21D;51436;44.692;39.214;2024-02-16T10:32:16;8.00;57.65
64924;HTU21D;51436;44.692;39.214;2024-02-16T10:34:43;8.01;57.64
64924;HTU21D;51436;44.692;39.214;2024-02-16T10:37:12;8.02;57.64
64924;HTU21D;51436;44.692;39.214;2024-02-16T10:39:40;8.05;57.64
64924;HTU21D;51436;44.692;39.214;2024-02-16T10:42:08;8.09;57.58
64924;HTU21D;51436;44.692;39.214;2024-02-16T10:44:36;8.13;57.55
64924;HTU21D;51436;44.692;39.214;2024-02-16T10:47:03;8.15;57.55
64924;HTU21D;51436;44.692;39.214;2024-02-16T10:49:30;8.15;57.56
64924;HTU21D;51436;44.692;39.214;2024-02-16T10:52:20;8.18;57.58
64924;HTU21D;51436;44.692;39.214;2024-02-16T10:54:47;8.22;57.51
64924;HTU21D;51436;44.692;39.214;2024-02-16T10:57:16;8.27;57.45
64924;HTU21D;51436;44.692;39.214;2024-02-16T10:59:44;8.35;57.35
64924;HTU21D;51436;44.692;39.214;2024-02-16T11:02:12;8.39;57.30
64924;HTU21D;51436;44.692;39.214;2024-02-16T11:04:39;8.39;57.30
64924;HTU21D;51436;44.692;39.214;2024-02-16T11:07:26;8.39;57.35
64924;HTU21D;51436;44.692;39.214;2024-02-16T11:09:52;8.36;57.40
64924;HTU21D;51436;44.692;39.214;2024-02-16T11:12:19;8.34;57.46
64924;HTU21D;51436;44.692;39.214;2024-02-16T11:14:47;8.34;57.49
64924;HTU21D;51436;44.692;39.214;2024-02-16T11:17:23;8.29;57.56
64924;HTU21D;51436;44.692;39.214;2024-02-16T11:19:54;8.32;57.55
64924;HTU21D;51436;44.692;39.214;2024-02-16T11:22:20;8.36;57.50
64924;HTU21D;51436;44.692;39.214;2024-02-16T11:24:49;8.44;57.38
64924;HTU21D;51436;44.692;39.214;2024-02-16T11:27:16;8.46;57.33
64924;HTU21D;51436;44.692;39.214;2024-02-16T11:29:46;8.49;57.35
64924;HTU21D;51436;44.692;39.214;2024-02-16T11:32:12;8.58;57.22
64924;HTU21D;51436;44.692;39.214;2024-02-16T11:34:39;8.60;57.16
64924;HTU21D;51436;44.692;39.214;2024-02-16T11:37:06;8.61;57.18
64924;HTU21D;51436;44.692;39.214;2024-02-16T11:39:33;8.68;57.06
64924;HTU21D;51436;44.692;39.214;2024-02-16T11:42:13;8.66;57.09
64924;HTU21D;51436;44.692;39.214;2024-02-16T11:44:50;8.65;57.16
64924;HTU21D;51436;44.692;39.214;2024-02-16T11:47:22;8.62;57.19
64924;HTU21D;51436;44.692;39.214;2024-02-16T11:50:08;8.59;57.35
64924;HTU21D;51436;44.692;39.214;2024-02-16T11:52:40;8.55;57.39
64924;HTU21D;51436;44.692;39.214;2024-02-16T11:55:11;8.56;57.39
64924;HTU21D;51436;44.692;39.214;2024-02-16T11:57:38;8.51;57.45
64924;HTU21D;51436;44.692;39.214;2024-02-16T12:00:06;8.42;57.59
64924;HTU21D;51436;44.692;39.214;2024-02-16T12:02:41;8.41;57.64
64924;HTU21D;51436;44.692;39.214;2024-02-16T12:05:07;8.43;57.54
64924;HTU21D;51436;44.692;39.214;2024-02-16T12:07:36;8.43;57.55
64924;HTU21D;51436;44.692;39.214;2024-02-16T12:10:26;8.49;57.45
64924;HTU21D;51436;44.692;39.214;2024-02-16T12:13:19;8.51;57.42
64924;HTU21D;51436;44.692;39.214;2024-02-16T12:15:49;8.50;57.39
64924;HTU21D;51436;44.692;39.214;2024-02-16T12:18:26;8.48;57.40
64924;HTU21D;51436;44.692;39.214;2024-02-16T12:21:03;8.45;57.51
64924;HTU21D;51436;44.692;39.214;2024-02-16T12:23:32;8.41;57.56
64924;HTU21D;51436;44.692;39.214;2024-02-16T12:26:00;8.43;57.56
64924;HTU21D;51436;44.692;39.214;2024-02-16T12:28:27;8.44;57.51
64924;HTU21D;51436;44.692;39.214;2024-02-16T12:30:55;8.48;57.45
64924;HTU21D;51436;44.692;39.214;2024-02-16T12:33:22;8.49;57.42
64924;HTU21D;51436;44.692;39.214;2024-02-16T12:35:49;8.50;57.42
64924;HTU21D;51436;44.692;39.214;2024-02-16T12:38:16;8.53;57.34
64924;HTU21D;51436;44.692;39.214;2024-02-16T12:40:48;8.62;57.19
64924;HTU21D;51436;44.692;39.214;2024-02-16T12:43:15;8.67;57.14
64924;HTU21D;51436;44.692;39.214;2024-02-16T12:45:42;8.71;57.09
64924;HTU21D;51436;44.692;39.214;2024-02-16T12:48:08;8.72;57.07
64924;HTU21D;51436;44.692;39.214;2024-02-16T12:50:40;8.66;57.19
64924;HTU21D;51436;44.692;39.214;2024-02-16T12:53:08;8.67;57.20
64924;HTU21D;51436;44.692;39.214;2024-02-16T12:55:35;8.64;57.23
64924;HTU21D;51436;44.692;39.214;2024-02-16T12:58:05;8.62;57.27
64924;HTU21D;51436;44.692;39.214;2024-02-16T13:00:32;8.57;57.35
64924;HTU21D;51436;44.692;39.214;2024-02-16T13:03:01;8.49;57.49
64924;HTU21D;51436;44.692;39.214;2024-02-16T13:05:28;8.45;57.62
64924;HTU21D;51436;44.692;39.214;2024-02-16T13:07:56;8.44;57.64
64924;HTU21D;51436;44.692;39.214;2024-02-16T13:10:22;8.41;57.66
64924;HTU21D;51436;44.692;39.214;2024-02-16T13:12:49;8.38;57.68
64924;HTU21D;51436;44.692;39.214;2024-02-16T13:15:15;8.32;57.80
64924;HTU21D;51436;44.692;39.214;2024-02-16T13:17:42;8.26;57.89
64924;HTU21D;51436;44.692;39.214;2024-02-16T13:20:08;8.22;57.93
64924;HTU21D;51436;44.692;39.214;2024-02-16T13:22:38;8.22;57.90
64924;HTU21D;51436;44.692;39.214;2024-02-16T13:25:05;8.23;57.87
64924;HTU21D;51436;44.692;39.214;2024-02-16T13:27:34;8.23;57.85
64924;HTU21D;51436;44.692;39.214;2024-02-16T13:30:01;8.23;57.84
64924;HTU21D;51436;44.692;39.214;2024-02-16T13:32:27;8.22;57.84
64924;HTU21D;51436;44.692;39.214;2024-02-16T13:34:54;8.22;57.84
64924;HTU21D;51436;44.692;39.214;2024-02-16T13:37:20;8.24;57.84
64924;HTU21D;51436;44.692;39.214;2024-02-16T13:39:47;8.19;57.87
64924;HTU21D;51436;44.692;39.214;2024-02-16T13:42:13;8.15;57.93
64924;HTU21D;51436;44.692;39.214;2024-02-16T13:44:40;8.15;57.93
64924;HTU21D;51436;44.692;39.214;2024-02-16T13:47:06;8.12;57.96
64924;HTU21D;51436;44.692;39.214;2024-02-16T13:49:33;8.07;58.02
64924;HTU21D;51436;44.692;39.214;2024-02-16T13:51:59;8.01;58.09
64924;HTU21D;51436;44.692;39.214;2024-02-16T13:54:26;7.94;58.16
64924;HTU21D;51436;44.692;39.214;2024-02-16T13:56:52;7.88;58.25
64924;HTU21D;51436;44.692;39.214;2024-02-16T13:59:19;7.84;58.30
64924;HTU21D;51436;44.692;39.214;2024-02-16T14:01:46;7.78;58.31
64924;HTU21D;51436;44.692;39.214;2024-02-16T14:04:13;7.74;58.35
64924;HTU21D;51436;44.692;39.214;2024-02-16T14:06:40;7.71;58.38
64924;HTU21D;51436;44.692;39.214;2024-02-16T14:09:07;7.64;58.41
64924;HTU21D;51436;44.692;39.214;2024-02-16T14:11:35;7.56;58.53
64924;HTU21D;51436;44.692;39.214;2024-02-16T14:14:02;7.50;58.59
64924;HTU21D;51436;44.692;39.214;2024-02-16T14:16:29;7.46;58.64
64924;HTU21D;51436;44.692;39.214;2024-02-16T14:18:56;7.44;58.63
64924;HTU21D;51436;44.692;39.214;2024-02-16T14:21:23;7.40;58.65
64924;HTU21D;51436;44.692;39.214;2024-02-16T14:23:52;7.35;58.69
64924;HTU21D;51436;44.692;39.214;2024-02-16T14:26:18;7.34;58.67
64924;HTU21D;51436;44.692;39.214;2024-02-16T14:28:46;7.37;58.62
64924;HTU21D;51436;44.692;39.214;2024-02-16T14:31:12;7.39;58.59
64924;HTU21D;51436;44.692;39.214;2024-02-16T14:33:42;7.35;58.60
64924;HTU21D;51436;44.692;39.214;2024-02-16T14:36:09;7.31;58.68
64924;HTU21D;51436;44.692;39.214;2024-02-16T14:38:37;7.29;58.69
64924;HTU21D;51436;44.692;39.214;2024-02-16T14:41:03;7.26;58.73
64924;HTU21D;51436;44.692;39.214;2024-02-16T14:43:32;7.25;58.75
64924;HTU21D;51436;44.692;39.214;2024-02-16T14:45:59;7.23;58.78
64924;HTU21D;51436;44.692;39.214;2024-02-16T14:48:26;7.18;58.80
64924;HTU21D;51436;44.692;39.214;2024-02-16T14:51:00;7.17;58.80
64924;HTU21D;51436;44.692;39.214;2024-02-16T14:53:32;7.14;58.83
64924;HTU21D;51436;44.692;39.214;2024-02-16T14:56:02;7.14;58.83
64924;HTU21D;51436;44.692;39.214;2024-02-16T14:58:31;7.09;58.87
64924;HTU21D;51436;44.692;39.214;2024-02-16T15:00:59;7.05;58.95
64924;HTU21D;51436;44.692;39.214;2024-02-16T15:03:27;7.07;58.96
64924;HTU21D;51436;44.692;39.214;2024-02-16T15:05:56;7.02;58.99
64924;HTU21D;51436;44.692;39.214;2024-02-16T15:08:22;6.99;59.05
64924;HTU21D;51436;44.692;39.214;2024-02-16T15:10:49;6.93;59.09
64924;HTU21D;51436;44.692;39.214;2024-02-16T15:13:16;6.88;59.13
64924;HTU21D;51436;44.692;39.214;2024-02-16T15:15:42;6.86;59.15
64924;HTU21D;51436;44.692;39.214;2024-02-16T15:18:08;6.82;59.19
64924;HTU21D;51436;44.692;39.214;2024-02-16T15:20:35;6.79;59.22
64924;HTU21D;51436;44.692;39.214;2024-02-16T15:23:05;6.76;59.18